Time;durP1;ratioP1;P1;durP2;ratioP2;P2;SDS_P1;SDS_P2;PMS_P1;PMS_P2;Temp;Humidity;BMP_temperature;BMP_pressure;BME280_temperature;BME280_humidity;BME280_pressure;Samples;Min_cycle;Max_cycle;Signal;HPM_P1;HPM_P2
2023/12/03 00:03:52;;;;;;;29.50;18.40;;;3.40;80.90;;;;;;10447395;28;20611;-60
2023/12/03 00:08:58;;;;;;;30.87;18.47;;;3.30;80.70;;;;;;10445831;28;20253;-60
2023/12/03 00:14:01;;;;;;;28.53;18.97;;;3.30;82.30;;;;;;10446099;28;20222;-61
2023/12/03 00:19:05;;;;;;;28.23;18.03;;;3.30;81.90;;;;;;10446944;28;20252;-60
2023/12/03 00:24:10;;;;;;;28.67;18.43;;;3.30;81.70;;;;;;10448045;28;20298;-61
2023/12/03 00:29:14;;;;;;;29.60;18.90;;;3.20;81.30;;;;;;10446629;28;20236;-60
2023/12/03 00:34:18;;;;;;;27.03;17.93;;;3.20;82.30;;;;;;10445468;28;20242;-61
2023/12/03 00:39:25;;;;;;;30.40;18.90;;;3.20;82.10;;;;;;10445651;28;20230;-60
2023/12/03 00:44:29;;;;;;;25.70;18.00;;;3.20;82.90;;;;;;10445622;28;20803;-61
2023/12/03 00:49:32;;;;;;;28.30;18.70;;;3.30;81.90;;;;;;10447107;28;20320;-60
2023/12/03 00:54:38;;;;;;;27.40;17.17;;;3.30;82.50;;;;;;10446573;28;20230;-61
2023/12/03 00:59:43;;;;;;;28.90;18.20;;;3.30;82.90;;;;;;10439174;28;20222;-61
2023/12/03 01:04:46;;;;;;;28.17;17.50;;;3.30;83.70;;;;;;10443278;28;20238;-62
2023/12/03 01:09:52;;;;;;;28.00;18.10;;;3.30;83.20;;;;;;10441414;28;20198;-61
2023/12/03 01:14:55;;;;;;;27.70;17.80;;;3.30;83.40;;;;;;10441895;28;20249;-62
2023/12/03 01:19:59;;;;;;;24.60;17.00;;;3.20;82.90;;;;;;10440986;28;20234;-60
2023/12/03 01:25:04;;;;;;;28.57;17.93;;;3.10;82.60;;;;;;10418843;28;20207;-58
2023/12/03 01:30:09;;;;;;;27.03;17.70;;;3.10;84.60;;;;;;10446643;28;20199;-64
2023/12/03 01:35:13;;;;;;;32.00;20.43;;;3.00;82.90;;;;;;10407361;28;20796;-64
2023/12/03 01:40:18;;;;;;;33.63;21.10;;;2.90;83.20;;;;;;10441391;28;20640;-65
2023/12/03 01:45:22;;;;;;;31.73;20.53;;;2.90;84.00;;;;;;10443855;28;20204;-60
2023/12/03 01:50:27;;;;;;;34.27;21.77;;;2.90;84.50;;;;;;10446214;28;20248;-63
2023/12/03 01:55:32;;;;;;;37.03;22.23;;;2.90;84.20;;;;;;10445284;28;20241;-63
2023/12/03 02:00:35;;;;;;;35.90;22.17;;;2.90;83.50;;;;;;10443555;28;20227;-63
2023/12/03 02:05:42;;;;;;;36.93;23.40;;;2.90;83.70;;;;;;10443272;28;20225;-59
2023/12/03 02:10:47;;;;;;;37.20;22.47;;;2.90;84.40;;;;;;10441658;28;20225;-62
2023/12/03 02:15:51;;;;;;;38.90;22.63;;;2.90;86.00;;;;;;10443090;28;20580;-64
2023/12/03 02:20:56;;;;;;;37.97;22.87;;;3.00;86.80;;;;;;10445807;28;20218;-60
2023/12/03 02:26:01;;;;;;;36.57;22.33;;;3.10;87.00;;;;;;10443128;28;20257;-60
2023/12/03 02:31:05;;;;;;;37.53;22.60;;;3.10;86.20;;;;;;10440087;28;20223;-62
2023/12/03 02:36:09;;;;;;;35.60;21.33;;;3.20;85.60;;;;;;10445888;28;20208;-62
2023/12/03 02:41:14;;;;;;;39.57;23.20;;;3.20;85.50;;;;;;10443473;28;20280;-63
2023/12/03 02:46:18;;;;;;;38.17;22.17;;;3.30;85.30;;;;;;10440883;28;20268;-59
2023/12/03 02:51:22;;;;;;;34.97;22.40;;;3.30;85.80;;;;;;10444671;28;20272;-63
2023/12/03 02:56:27;;;;;;;43.73;24.23;;;3.30;85.60;;;;;;10442275;28;20246;-60
2023/12/03 03:01:30;;;;;;;39.17;23.73;;;3.30;85.80;;;;;;10442453;28;20225;-62
2023/12/03 03:06:34;;;;;;;39.73;24.57;;;3.30;85.90;;;;;;10440506;28;20298;-59
2023/12/03 03:11:39;;;;;;;39.87;23.97;;;3.30;87.30;;;;;;10440554;28;20226;-63
2023/12/03 03:16:42;;;;;;;37.93;23.30;;;3.30;86.30;;;;;;10438988;28;20222;-62
2023/12/03 03:21:46;;;;;;;37.83;24.33;;;3.30;86.50;;;;;;10440759;28;20218;-62
2023/12/03 03:26:51;;;;;;;39.03;24.10;;;3.30;88.80;;;;;;10440963;28;20692;-62
2023/12/03 03:31:55;;;;;;;39.53;23.90;;;3.30;88.90;;;;;;10436573;28;20224;-61
2023/12/03 03:36:59;;;;;;;39.57;23.57;;;3.30;87.60;;;;;;10439889;28;20624;-58
2023/12/03 03:42:05;;;;;;;36.57;23.03;;;3.30;88.50;;;;;;10440426;28;20924;-63
2023/12/03 03:47:10;;;;;;;38.97;23.13;;;3.30;88.10;;;;;;10445237;28;20247;-64
2023/12/03 03:52:14;;;;;;;36.00;23.43;;;3.30;88.60;;;;;;10448610;28;20779;-64
2023/12/03 03:57:19;;;;;;;36.93;23.40;;;3.40;88.30;;;;;;10446819;28;20212;-63
2023/12/03 04:02:22;;;;;;;37.43;23.97;;;3.30;88.30;;;;;;10447884;28;20241;-64
2023/12/03 04:07:26;;;;;;;36.00;22.93;;;3.30;87.80;;;;;;10445557;28;20270;-63
2023/12/03 04:12:31;;;;;;;35.73;22.33;;;3.30;88.80;;;;;;10449316;28;20703;-66
2023/12/03 04:17:34;;;;;;;36.17;22.73;;;3.30;88.80;;;;;;10443626;28;20277;-64
2023/12/03 04:22:38;;;;;;;33.43;22.33;;;3.20;88.90;;;;;;10447546;28;20720;-64
2023/12/03 04:27:43;;;;;;;32.90;21.13;;;3.20;89.20;;;;;;10448538;28;20204;-64
2023/12/03 04:32:50;;;;;;;33.07;20.63;;;3.20;88.50;;;;;;10449234;28;20271;-62
2023/12/03 04:37:53;;;;;;;32.30;19.83;;;3.20;88.90;;;;;;10444775;28;20750;-63
2023/12/03 04:42:58;;;;;;;33.43;20.33;;;3.30;90.20;;;;;;10445897;28;20226;-63
2023/12/03 04:48:02;;;;;;;30.80;19.90;;;3.30;90.40;;;;;;10444396;28;20199;-63
2023/12/03 04:53:06;;;;;;;27.30;19.03;;;3.30;89.10;;;;;;10442075;28;20221;-64
2023/12/03 04:58:11;;;;;;;27.10;18.37;;;3.30;90.00;;;;;;10446242;28;20216;-64
2023/12/03 05:03:15;;;;;;;29.10;19.20;;;3.30;90.10;;;;;;10448144;28;20233;-64
2023/12/03 05:08:18;;;;;;;30.00;17.70;;;3.30;89.00;;;;;;10446856;28;20621;-64
2023/12/03 05:13:23;;;;;;;27.17;18.13;;;3.30;90.20;;;;;;10446998;28;20220;-63
2023/12/03 05:18:27;;;;;;;28.50;17.87;;;3.30;89.90;;;;;;10442729;28;20219;-63
2023/12/03 05:23:31;;;;;;;26.40;17.03;;;3.30;88.90;;;;;;10442829;28;20227;-64
2023/12/03 05:28:36;;;;;;;27.10;17.10;;;3.40;89.60;;;;;;10447904;28;20188;-64
2023/12/03 05:33:41;;;;;;;26.70;17.17;;;3.40;89.20;;;;;;10445955;28;20223;-64
2023/12/03 05:38:45;;;;;;;27.63;16.23;;;3.40;89.50;;;;;;10440472;28;20281;-64
2023/12/03 05:43:51;;;;;;;24.37;15.97;;;3.50;90.00;;;;;;10442950;28;20223;-65
2023/12/03 05:48:55;;;;;;;25.00;16.57;;;3.60;88.80;;;;;;10442729;28;20245;-64
2023/12/03 05:53:59;;;;;;;26.77;16.80;;;3.60;89.50;;;;;;10446647;28;20219;-64
2023/12/03 05:59:04;;;;;;;22.93;15.33;;;3.60;88.70;;;;;;10439829;28;20262;-64
2023/12/03 06:04:08;;;;;;;25.30;15.50;;;3.70;88.60;;;;;;10442890;28;20651;-64
2023/12/03 06:09:11;;;;;;;22.90;14.57;;;3.70;88.70;;;;;;10444412;28;20658;-65
2023/12/03 06:14:17;;;;;;;21.60;14.63;;;3.70;90.00;;;;;;10447193;28;20265;-64
2023/12/03 06:19:20;;;;;;;20.57;13.97;;;3.70;89.40;;;;;;10445075;28;20231;-63
2023/12/03 06:24:26;;;;;;;22.50;13.93;;;3.70;88.60;;;;;;10444396;28;20228;-64
2023/12/03 06:29:31;;;;;;;21.40;14.07;;;3.80;88.20;;;;;;10441763;28;20199;-64
2023/12/03 06:34:34;;;;;;;21.17;14.03;;;3.70;89.30;;;;;;10445257;28;20293;-64
2023/12/03 06:39:38;;;;;;;23.87;13.50;;;3.70;88.00;;;;;;10440771;28;20646;-64
2023/12/03 06:44:43;;;;;;;21.20;13.47;;;3.80;87.90;;;;;;10443043;28;20227;-64
2023/12/03 06:49:47;;;;;;;20.53;12.83;;;3.70;87.80;;;;;;10449568;28;20256;-67
2023/12/03 06:54:51;;;;;;;22.70;14.10;;;3.80;88.20;;;;;;10445851;28;20278;-66
2023/12/03 06:59:56;;;;;;;19.47;13.33;;;3.80;87.50;;;;;;10442159;28;20253;-67
2023/12/03 07:05:00;;;;;;;20.23;13.27;;;3.80;88.10;;;;;;10444630;28;20577;-67
2023/12/03 07:10:03;;;;;;;17.80;13.13;;;3.90;88.40;;;;;;10445579;28;20203;-66
2023/12/03 07:15:09;;;;;;;18.63;12.80;;;3.80;88.60;;;;;;10424783;28;20588;-64
2023/12/03 07:20:13;;;;;;;19.80;12.67;;;3.80;87.50;;;;;;10443868;28;20220;-67
2023/12/03 07:25:17;;;;;;;19.37;12.70;;;3.80;88.20;;;;;;10448441;28;20203;-68
2023/12/03 07:30:22;;;;;;;19.23;12.90;;;3.90;89.20;;;;;;10447598;28;20281;-67
2023/12/03 07:35:25;;;;;;;17.90;12.10;;;3.90;87.80;;;;;;10447587;28;20650;-67
2023/12/03 07:40:32;;;;;;;19.63;12.93;;;3.90;86.90;;;;;;10450436;28;20223;-65
2023/12/03 07:45:37;;;;;;;17.43;12.60;;;4.00;87.40;;;;;;10373847;28;20281;-66
2023/12/03 07:50:41;;;;;;;21.27;14.33;;;4.00;87.20;;;;;;10453383;28;20234;-68
2023/12/03 07:55:44;;;;;;;19.20;13.47;;;3.90;86.20;;;;;;10447836;28;20257;-67
2023/12/03 08:00:49;;;;;;;18.70;13.17;;;3.90;87.10;;;;;;10444662;28;20274;-68
2023/12/03 08:05:53;;;;;;;21.10;13.30;;;3.90;86.90;;;;;;10451660;28;20214;-68
2023/12/03 08:10:57;;;;;;;18.57;12.80;;;3.90;89.40;;;;;;10449802;28;20222;-67
2023/12/03 08:16:05;;;;;;;18.27;12.53;;;3.80;87.00;;;;;;10437351;28;20204;-66
2023/12/03 08:21:10;;;;;;;17.30;12.23;;;3.90;87.60;;;;;;10448697;28;20276;-66
2023/12/03 08:26:14;;;;;;;21.73;12.17;;;3.90;87.00;;;;;;10447494;28;20224;-66
2023/12/03 08:31:21;;;;;;;18.17;12.23;;;3.90;87.30;;;;;;10445922;28;20695;-65
2023/12/03 08:36:30;;;;;;;17.87;11.80;;;3.90;86.70;;;;;;10436890;28;20658;-64
2023/12/03 08:41:34;;;;;;;17.87;12.13;;;3.90;86.30;;;;;;10443398;28;20250;-67
2023/12/03 08:46:39;;;;;;;17.90;12.10;;;4.00;85.80;;;;;;10457876;28;20547;-66
2023/12/03 08:51:42;;;;;;;16.97;11.67;;;4.00;87.10;;;;;;10453962;28;20224;-66
2023/12/03 08:56:46;;;;;;;16.40;11.20;;;4.10;87.30;;;;;;10442746;28;20636;-63
2023/12/03 09:01:53;;;;;;;17.73;12.37;;;4.10;86.90;;;;;;10449878;28;20219;-64
2023/12/03 09:06:56;;;;;;;16.37;11.20;;;4.10;87.10;;;;;;10444924;28;20248;-64
2023/12/03 09:12:00;;;;;;;17.20;11.40;;;4.10;85.90;;;;;;10447658;28;20214;-67
2023/12/03 09:17:05;;;;;;;39.77;28.27;;;4.10;85.00;;;;;;10435879;28;20220;-67
2023/12/03 09:22:09;;;;;;;17.47;12.90;;;4.10;84.60;;;;;;10446144;28;20220;-68
2023/12/03 09:27:12;;;;;;;16.60;12.23;;;4.10;84.70;;;;;;10446927;28;20721;-67
2023/12/03 09:32:17;;;;;;;17.00;12.43;;;4.10;85.20;;;;;;10441955;28;20277;-67
2023/12/03 09:37:21;;;;;;;17.40;11.87;;;4.10;84.40;;;;;;10446142;28;20207;-69
2023/12/03 09:42:27;;;;;;;15.83;11.33;;;4.10;83.70;;;;;;10444111;28;20249;-67
2023/12/03 09:47:35;;;;;;;16.27;11.10;;;4.10;83.50;;;;;;10438778;28;20274;-67
2023/12/03 09:52:43;;;;;;;18.17;11.40;;;4.10;83.80;;;;;;10449788;28;20238;-67
2023/12/03 09:57:48;;;;;;;14.43;10.10;;;4.10;84.70;;;;;;10428851;28;20207;-70
2023/12/03 10:02:54;;;;;;;14.73;10.33;;;4.10;84.60;;;;;;10446908;28;20285;-72
2023/12/03 10:07:59;;;;;;;16.00;9.97;;;4.10;83.40;;;;;;10437460;28;20925;-68
2023/12/03 10:13:06;;;;;;;17.20;10.37;;;4.20;85.50;;;;;;10437648;28;20313;-66
2023/12/03 10:18:11;;;;;;;15.73;10.70;;;4.20;84.40;;;;;;10433396;28;20206;-69
2023/12/03 10:23:18;;;;;;;13.80;10.03;;;4.20;84.50;;;;;;10448993;28;20368;-66
2023/12/03 10:28:22;;;;;;;15.50;10.07;;;4.20;85.30;;;;;;10441735;28;20238;-65
2023/12/03 10:33:27;;;;;;;14.30;9.67;;;4.20;84.90;;;;;;10446375;28;20277;-67
2023/12/03 10:38:37;;;;;;;16.47;10.60;;;4.20;83.30;;;;;;10448179;28;20759;-67
2023/12/03 10:43:43;;;;;;;18.43;11.33;;;4.30;84.10;;;;;;10403387;28;20250;-66
2023/12/03 10:48:49;;;;;;;17.73;11.13;;;4.30;85.00;;;;;;10447272;28;20202;-68
2023/12/03 10:53:53;;;;;;;16.20;10.87;;;4.30;83.90;;;;;;10446249;28;20218;-69
2023/12/03 10:59:00;;;;;;;18.27;11.23;;;4.40;83.40;;;;;;10454490;28;20200;-66
2023/12/03 11:04:12;;;;;;;18.13;10.97;;;4.30;83.90;;;;;;10453976;28;20608;-67
2023/12/03 11:09:16;;;;;;;22.47;15.03;;;4.30;82.60;;;;;;10455211;28;20264;-69
2023/12/03 11:14:19;;;;;;;17.27;11.57;;;4.30;82.40;;;;;;10457479;28;20273;-69
2023/12/03 11:19:26;;;;;;;18.13;11.73;;;4.40;83.00;;;;;;10450731;28;20567;-68
2023/12/03 11:24:51;;;;;;;15.50;11.37;;;4.40;83.70;;;;;;10453482;28;20605;-68
2023/12/03 11:29:56;;;;;;;16.77;11.97;;;4.50;83.60;;;;;;10454791;28;20575;-67
2023/12/03 11:35:03;;;;;;;18.07;11.00;;;4.60;83.60;;;;;;10451596;28;20309;-67
2023/12/03 11:40:11;;;;;;;19.37;11.93;;;4.60;83.20;;;;;;10452860;28;20216;-69
2023/12/03 11:45:23;;;;;;;18.17;11.77;;;4.60;83.90;;;;;;10454978;28;20206;-68
2023/12/03 11:50:30;;;;;;;16.00;11.20;;;4.60;82.60;;;;;;10452478;28;20771;-66
2023/12/03 11:55:36;;;;;;;16.80;11.50;;;4.70;81.60;;;;;;10455117;28;20266;-67
2023/12/03 12:00:41;;;;;;;17.77;11.30;;;4.70;81.10;;;;;;10457203;28;20223;-68
2023/12/03 12:05:48;;;;;;;18.07;11.83;;;4.70;80.70;;;;;;10454273;28;20261;-68
2023/12/03 12:10:52;;;;;;;16.87;11.97;;;4.70;80.10;;;;;;10452581;28;20272;-67
2023/12/03 12:15:58;;;;;;;19.13;11.53;;;4.80;82.50;;;;;;10452663;28;20652;-68
2023/12/03 12:21:14;;;;;;;17.90;11.10;;;4.90;81.50;;;;;;10450571;28;20224;-67
2023/12/03 12:26:18;;;;;;;17.57;11.47;;;5.10;80.10;;;;;;10449713;28;20665;-66
2023/12/03 12:31:26;;;;;;;17.13;11.70;;;5.40;81.10;;;;;;10451365;28;20283;-66
2023/12/03 12:36:31;;;;;;;16.73;11.23;;;5.70;81.70;;;;;;10449223;28;20232;-68
2023/12/03 12:41:38;;;;;;;18.00;11.30;;;6.00;81.50;;;;;;10451513;28;20265;-67
2023/12/03 12:46:53;;;;;;;17.97;11.53;;;6.20;80.10;;;;;;10449843;28;20209;-67
2023/12/03 12:52:10;;;;;;;15.37;10.37;;;6.40;81.50;;;;;;10454496;28;20276;-65
2023/12/03 12:57:14;;;;;;;18.45;14.63;;;6.50;81.70;;;;;;10446876;28;20478;-69
2023/12/03 13:02:19;;;;;;;14.63;11.33;;;6.80;77.20;;;;;;10451262;28;20221;-67
2023/12/03 13:07:24;;;;;;;16.57;11.37;;;6.90;81.80;;;;;;10447575;28;20743;-67
2023/12/03 13:12:27;;;;;;;16.17;11.27;;;6.90;82.70;;;;;;10452394;28;20230;-68
2023/12/03 13:17:32;;;;;;;19.07;12.20;;;6.80;76.90;;;;;;10453399;28;20203;-67
2023/12/03 13:22:37;;;;;;;18.20;12.70;;;6.60;76.90;;;;;;10447399;28;20284;-67
2023/12/03 13:27:42;;;;;;;19.00;12.50;;;6.50;75.10;;;;;;10452465;28;20256;-66
2023/12/03 13:32:46;;;;;;;16.90;12.20;;;6.40;76.60;;;;;;10451584;28;20223;-68
2023/12/03 13:37:51;;;;;;;17.63;12.27;;;6.30;78.60;;;;;;10452701;28;20209;-67
2023/12/03 13:42:55;;;;;;;15.23;11.10;;;6.20;78.90;;;;;;10448453;28;20700;-67
2023/12/03 13:47:59;;;;;;;15.53;11.50;;;6.10;78.80;;;;;;10456192;28;20267;-66
2023/12/03 13:53:04;;;;;;;16.53;11.43;;;6.10;81.40;;;;;;10451750;28;20763;-68
2023/12/03 13:58:08;;;;;;;16.50;11.30;;;6.00;77.70;;;;;;10451624;28;20665;-68
2023/12/03 14:03:11;;;;;;;17.40;12.30;;;5.90;79.70;;;;;;10451659;28;20227;-67
2023/12/03 14:08:16;;;;;;;19.90;11.73;;;5.90;77.30;;;;;;10447921;28;20228;-66
2023/12/03 14:13:22;;;;;;;19.10;12.00;;;5.80;76.50;;;;;;10451124;28;20225;-68
2023/12/03 14:18:26;;;;;;;16.50;11.70;;;5.80;77.80;;;;;;10450874;28;20258;-68
2023/12/03 14:23:31;;;;;;;15.70;10.97;;;5.70;76.50;;;;;;10444881;28;20234;-67
2023/12/03 14:28:36;;;;;;;14.67;10.33;;;5.70;76.30;;;;;;10450433;28;20203;-68
2023/12/03 14:33:40;;;;;;;16.67;11.23;;;5.60;76.40;;;;;;10444963;28;20619;-69
2023/12/03 14:38:45;;;;;;;16.10;11.23;;;5.50;74.70;;;;;;10448073;28;20259;-69
2023/12/03 14:43:49;;;;;;;17.03;12.23;;;5.40;75.80;;;;;;10450428;28;20250;-68
2023/12/03 14:48:52;;;;;;;16.53;12.07;;;5.40;76.80;;;;;;10451024;28;20201;-68
2023/12/03 14:53:57;;;;;;;17.10;12.10;;;5.30;79.00;;;;;;10447484;28;20261;-68
2023/12/03 14:59:05;;;;;;;19.27;12.90;;;5.20;75.50;;;;;;10450801;28;20205;-65
2023/12/03 15:04:08;;;;;;;18.17;12.53;;;5.10;75.50;;;;;;10448203;28;20232;-66
2023/12/03 15:09:13;;;;;;;18.80;13.80;;;4.90;75.10;;;;;;10453016;28;20206;-68
2023/12/03 15:14:17;;;;;;;17.20;12.67;;;4.90;74.50;;;;;;10414291;28;20248;-66
2023/12/03 15:19:20;;;;;;;17.30;12.73;;;4.80;74.40;;;;;;10445313;28;20210;-66
2023/12/03 15:24:26;;;;;;;17.90;11.93;;;4.70;74.60;;;;;;10424623;28;20251;-67
2023/12/03 15:29:29;;;;;;;19.37;12.83;;;4.60;74.90;;;;;;10450516;28;20219;-69
2023/12/03 15:34:33;;;;;;;20.13;13.67;;;4.50;76.80;;;;;;10444677;28;20230;-67
2023/12/03 15:39:38;;;;;;;21.90;13.90;;;4.40;75.50;;;;;;10445663;28;20262;-67
2023/12/03 15:44:42;;;;;;;22.00;14.50;;;4.40;74.50;;;;;;10438941;28;20229;-68
2023/12/03 15:49:46;;;;;;;22.73;14.33;;;4.40;74.90;;;;;;10455751;28;20243;-65
2023/12/03 15:54:51;;;;;;;19.90;13.43;;;4.40;77.10;;;;;;10454349;28;20282;-66
2023/12/03 15:59:59;;;;;;;22.37;14.57;;;4.30;74.60;;;;;;10465446;28;20231;-66
2023/12/03 16:05:03;;;;;;;23.10;14.63;;;4.30;75.20;;;;;;10463645;28;20636;-66
2023/12/03 16:10:09;;;;;;;24.77;14.83;;;4.30;75.30;;;;;;10456526;28;20200;-66
2023/12/03 16:15:13;;;;;;;20.43;13.63;;;4.20;74.80;;;;;;10457663;28;20204;-65
2023/12/03 16:20:18;;;;;;;23.60;15.00;;;4.20;75.00;;;;;;10460470;28;20229;-65
2023/12/03 16:25:22;;;;;;;23.90;15.87;;;4.20;74.40;;;;;;10458600;28;20200;-64
2023/12/03 16:30:29;;;;;;;24.13;15.60;;;4.20;74.60;;;;;;10460387;28;20309;-66
2023/12/03 16:35:33;;;;;;;23.27;14.90;;;4.20;74.30;;;;;;10462315;28;20257;-65
2023/12/03 16:40:38;;;;;;;23.13;14.80;;;4.20;74.90;;;;;;10462180;28;20219;-65
2023/12/03 16:45:41;;;;;;;19.40;13.27;;;4.20;76.80;;;;;;10463417;28;20284;-66
2023/12/03 16:50:45;;;;;;;20.57;13.97;;;4.20;74.40;;;;;;10462481;28;20225;-66
2023/12/03 16:55:52;;;;;;;21.20;14.57;;;4.20;74.30;;;;;;10462205;28;20203;-68
2023/12/03 17:00:56;;;;;;;19.40;13.23;;;4.20;75.00;;;;;;10463068;28;20224;-65
2023/12/03 17:06:00;;;;;;;20.67;13.83;;;4.20;76.40;;;;;;10464561;28;20220;-66
2023/12/03 17:11:05;;;;;;;20.00;13.40;;;4.20;76.90;;;;;;10462412;28;20226;-67
2023/12/03 17:16:10;;;;;;;19.87;13.27;;;4.20;75.60;;;;;;10451747;28;20206;-66
2023/12/03 17:21:14;;;;;;;19.03;13.57;;;4.20;75.10;;;;;;10451825;28;20216;-64
2023/12/03 17:26:19;;;;;;;20.10;13.30;;;4.20;75.90;;;;;;10449461;28;20290;-65
2023/12/03 17:31:23;;;;;;;19.53;14.47;;;4.10;74.60;;;;;;10448869;28;20239;-64
2023/12/03 17:36:27;;;;;;;20.30;13.60;;;4.20;76.30;;;;;;10442778;28;20226;-64
2023/12/03 17:41:33;;;;;;;22.33;14.80;;;4.20;78.10;;;;;;10453676;28;20281;-63
2023/12/03 17:46:38;;;;;;;19.97;13.93;;;4.20;79.90;;;;;;10458212;28;20217;-65
2023/12/03 17:51:41;;;;;;;20.47;14.23;;;4.20;76.00;;;;;;10452286;28;20224;-65
2023/12/03 17:56:46;;;;;;;19.33;13.10;;;4.30;77.80;;;;;;10445293;28;20197;-63
2023/12/03 18:01:50;;;;;;;22.87;14.03;;;4.30;77.00;;;;;;10437637;28;20226;-63
2023/12/03 18:06:54;;;;;;;17.60;13.23;;;4.30;76.90;;;;;;10436339;28;20250;-63
2023/12/03 18:11:59;;;;;;;17.13;12.73;;;4.30;77.70;;;;;;10442551;28;20514;-65
2023/12/03 18:17:02;;;;;;;23.80;14.37;;;4.30;76.90;;;;;;10443194;28;20241;-64
2023/12/03 18:22:06;;;;;;;18.93;12.70;;;4.30;76.30;;;;;;10444727;28;20225;-63
2023/12/03 18:27:11;;;;;;;17.70;12.87;;;4.30;76.60;;;;;;10441946;28;20820;-61
2023/12/03 18:32:15;;;;;;;17.23;12.30;;;4.30;74.40;;;;;;10448008;28;20220;-63
2023/12/03 18:37:18;;;;;;;18.57;12.33;;;4.30;76.20;;;;;;10462753;28;20276;-65
2023/12/03 18:42:23;;;;;;;16.80;13.00;;;4.30;79.90;;;;;;10457175;28;20247;-66
2023/12/03 18:47:27;;;;;;;19.30;12.70;;;4.30;77.60;;;;;;10442608;28;20224;-67
2023/12/03 18:52:31;;;;;;;17.43;12.63;;;4.30;76.60;;;;;;10443632;28;20755;-64
2023/12/03 18:57:36;;;;;;;17.33;12.40;;;4.30;76.60;;;;;;10447267;28;20230;-65
2023/12/03 19:02:40;;;;;;;19.23;12.87;;;4.20;79.30;;;;;;10456577;28;20229;-63
2023/12/03 19:07:49;;;;;;;19.03;13.10;;;4.20;80.50;;;;;;10445762;28;20207;-64
2023/12/03 19:12:54;;;;;;;15.93;12.30;;;4.30;83.70;;;;;;10445870;28;20221;-64
2023/12/03 19:18:08;;;;;;;19.40;13.87;;;4.30;82.90;;;;;;10444814;28;20239;-65
2023/12/03 19:23:11;;;;;;;20.03;14.30;;;4.20;85.40;;;;;;10447566;28;20748;-65
2023/12/03 19:28:16;;;;;;;20.93;14.37;;;4.20;83.30;;;;;;10456015;28;20213;-64
2023/12/03 19:33:20;;;;;;;21.63;15.63;;;4.10;81.80;;;;;;10446440;28;20285;-64
2023/12/03 19:38:23;;;;;;;21.70;15.13;;;4.10;80.40;;;;;;10452601;28;20201;-63
2023/12/03 19:43:28;;;;;;;22.63;16.27;;;4.10;83.10;;;;;;10454696;28;20225;-63
2023/12/03 19:48:32;;;;;;;22.87;16.20;;;4.00;82.80;;;;;;10454075;28;20206;-67
2023/12/03 19:53:36;;;;;;;23.37;14.90;;;4.00;83.40;;;;;;10418791;28;20350;-64
2023/12/03 19:58:41;;;;;;;21.00;15.03;;;4.00;89.70;;;;;;10442295;28;20210;-66
2023/12/03 20:03:45;;;;;;;24.10;16.13;;;3.90;85.90;;;;;;10453151;28;20227;-65
2023/12/03 20:08:49;;;;;;;22.50;15.70;;;3.90;84.50;;;;;;10448590;28;20198;-65
2023/12/03 20:13:54;;;;;;;21.40;15.60;;;3.80;84.50;;;;;;10456135;28;20223;-66
2023/12/03 20:18:58;;;;;;;20.27;14.77;;;3.80;84.70;;;;;;10449967;28;20199;-64
2023/12/03 20:24:01;;;;;;;25.97;17.23;;;3.80;84.30;;;;;;10436345;28;20297;-62
2023/12/03 20:29:07;;;;;;;21.87;15.13;;;3.80;84.10;;;;;;10440899;28;20223;-63
2023/12/03 20:34:10;;;;;;;18.43;12.23;;;3.90;85.00;;;;;;10449165;28;20215;-64
2023/12/03 20:39:14;;;;;;;16.43;11.70;;;3.90;84.50;;;;;;10448569;28;20297;-63
2023/12/03 20:44:19;;;;;;;17.20;12.07;;;3.90;84.40;;;;;;10449719;28;20222;-64
2023/12/03 20:49:23;;;;;;;15.80;13.20;;;3.90;84.40;;;;;;10443551;28;20211;-64
2023/12/03 20:54:27;;;;;;;12.57;9.10;;;3.90;84.20;;;;;;10442819;28;20634;-67
2023/12/03 20:59:32;;;;;;;14.60;9.60;;;3.90;86.80;;;;;;10447299;28;20199;-65
2023/12/03 21:04:36;;;;;;;11.83;9.10;;;3.90;87.10;;;;;;10438815;28;20250;-65
2023/12/03 21:09:39;;;;;;;14.00;8.93;;;3.90;87.00;;;;;;10452022;28;20222;-65
2023/12/03 21:14:44;;;;;;;13.90;9.23;;;3.80;87.30;;;;;;10439518;28;20227;-63
2023/12/03 21:19:48;;;;;;;15.33;9.83;;;3.80;88.00;;;;;;10442391;28;20261;-65
2023/12/03 21:24:52;;;;;;;15.90;10.63;;;3.90;87.40;;;;;;10447600;28;20284;-66
2023/12/03 21:29:57;;;;;;;14.63;10.17;;;3.80;87.40;;;;;;10448147;28;20719;-65
2023/12/03 21:35:01;;;;;;;17.37;11.37;;;3.80;86.90;;;;;;10444868;28;20245;-64
2023/12/03 21:40:06;;;;;;;16.43;12.47;;;3.80;87.40;;;;;;10436742;28;20253;-65
2023/12/03 21:45:11;;;;;;;18.67;12.27;;;3.80;87.90;;;;;;10444419;28;20747;-65
2023/12/03 21:50:15;;;;;;;19.17;12.37;;;3.80;87.70;;;;;;10443968;28;20606;-65
2023/12/03 21:55:18;;;;;;;17.73;11.97;;;3.80;88.10;;;;;;10442703;28;20637;-62
2023/12/03 22:00:23;;;;;;;19.77;12.53;;;3.80;89.10;;;;;;10437721;28;20219;-64
2023/12/03 22:05:27;;;;;;;19.00;12.00;;;3.70;88.60;;;;;;10438312;28;20256;-64
2023/12/03 22:10:31;;;;;;;16.70;11.77;;;3.70;88.80;;;;;;10439591;28;20574;-63
2023/12/03 22:15:39;;;;;;;16.33;11.87;;;3.70;88.20;;;;;;10450284;28;20225;-65
2023/12/03 22:20:46;;;;;;;17.73;15.50;;;3.70;87.80;;;;;;10365124;28;20448;-64
2023/12/03 22:25:52;;;;;;;16.97;12.00;;;3.70;89.00;;;;;;10443692;28;20693;-64
2023/12/03 22:30:58;;;;;;;16.13;10.93;;;3.70;88.40;;;;;;10433888;28;20225;-65
2023/12/03 22:36:02;;;;;;;16.17;11.67;;;3.80;88.20;;;;;;10446370;28;20249;-63
2023/12/03 22:41:06;;;;;;;16.90;11.97;;;3.80;87.60;;;;;;10448475;28;20227;-63
2023/12/03 22:46:11;;;;;;;17.20;12.67;;;3.80;87.10;;;;;;10438151;28;20267;-64
2023/12/03 22:51:15;;;;;;;16.83;11.67;;;3.80;86.70;;;;;;10447157;28;20261;-64
2023/12/03 22:56:19;;;;;;;14.73;11.43;;;3.80;86.70;;;;;;10451007;28;20202;-64
2023/12/03 23:01:24;;;;;;;15.60;10.43;;;3.80;86.60;;;;;;10442829;28;20380;-64
2023/12/03 23:06:27;;;;;;;14.20;10.67;;;3.80;87.90;;;;;;10446461;28;20231;-64
2023/12/03 23:11:31;;;;;;;16.73;11.67;;;3.90;86.90;;;;;;10450943;28;20230;-65
2023/12/03 23:16:41;;;;;;;13.87;10.10;;;3.90;86.40;;;;;;10449579;28;20214;-64
2023/12/03 23:21:46;;;;;;;15.20;10.73;;;3.90;86.00;;;;;;10448264;28;20226;-64
2023/12/03 23:26:49;;;;;;;14.93;10.87;;;3.90;86.50;;;;;;10448609;28;20218;-65
2023/12/03 23:32:03;;;;;;;15.03;11.13;;;4.00;85.80;;;;;;10449993;28;20226;-64
2023/12/03 23:37:07;;;;;;;15.43;11.03;;;3.90;85.50;;;;;;10448085;28;20254;-64
2023/12/03 23:42:10;;;;;;;15.47;11.73;;;4.00;85.70;;;;;;10442121;28;20225;-65
2023/12/03 23:47:15;;;;;;;15.57;11.50;;;4.00;84.90;;;;;;10444112;28;20219;-64
2023/12/03 23:52:19;;;;;;;16.13;11.33;;;3.90;85.30;;;;;;10436737;28;20885;-65
2023/12/03 23:57:23;;;;;;;14.43;10.27;;;4.00;84.90;;;;;;10431352;28;20614;-64
